createdAt,value
2023-04-08T00:00:32.246Z,100.87
2023-04-08T00:02:59.203Z,62.00
2023-04-08T00:05:26.280Z,87.83
2023-04-08T00:07:54.098Z,72.83
2023-04-08T00:10:21.047Z,54.33
2023-04-08T00:12:48.765Z,94.23
2023-04-08T00:15:16.128Z,59.70
2023-04-08T00:17:42.884Z,36.87
2023-04-08T00:20:10.120Z,45.50
2023-04-08T00:22:37.059Z,35.67
2023-04-08T00:25:06.773Z,38.33
2023-04-08T00:27:33.869Z,34.87
2023-04-08T00:30:01.639Z,33.27
2023-04-08T00:32:29.360Z,33.80
2023-04-08T00:34:56.537Z,39.77
2023-04-08T00:37:24.945Z,36.00
2023-04-08T00:39:53.997Z,36.33
2023-04-08T00:42:22.101Z,34.47
2023-04-08T00:44:48.918Z,34.87
2023-04-08T00:47:16.601Z,36.87
2023-04-08T00:49:44.430Z,44.43
2023-04-08T00:52:11.586Z,28.67
2023-04-08T00:54:38.660Z,34.67
2023-04-08T00:57:06.310Z,38.43
2023-04-08T00:59:33.720Z,39.30
2023-04-08T01:02:42.188Z,40.40
2023-04-08T01:05:36.118Z,35.37
2023-04-08T01:08:07.034Z,40.60
2023-04-08T01:10:35.053Z,41.87
2023-04-08T01:13:12.068Z,45.40
2023-04-08T01:15:41.332Z,50.17
2023-04-08T01:18:12.528Z,55.77
2023-04-08T01:20:41.972Z,48.17
2023-04-08T01:23:25.387Z,41.03
2023-04-08T01:25:53.993Z,44.07
2023-04-08T01:28:23.428Z,56.67
2023-04-08T01:30:51.708Z,48.87
2023-04-08T01:33:19.956Z,50.23
2023-04-08T01:35:46.896Z,48.80
2023-04-08T01:38:18.190Z,50.37
2023-04-08T01:40:46.234Z,41.20
2023-04-08T01:43:15.728Z,49.70
2023-04-08T01:45:45.533Z,53.40
2023-04-08T01:48:14.719Z,60.90
2023-04-08T01:50:45.619Z,49.77
2023-04-08T01:53:12.948Z,58.43
2023-04-08T01:55:41.545Z,52.47
2023-04-08T01:58:11.602Z,51.93
2023-04-08T02:00:41.020Z,57.43
2023-04-08T02:03:09.046Z,63.13
2023-04-08T02:05:36.057Z,66.30
2023-04-08T02:08:02.741Z,65.50
2023-04-08T02:10:30.779Z,54.33
2023-04-08T02:12:58.688Z,59.60
2023-04-08T02:15:28.945Z,56.10
2023-04-08T02:18:00.839Z,66.70
2023-04-08T02:20:37.697Z,65.97
2023-04-08T02:23:20.117Z,67.23
2023-04-08T02:25:48.156Z,57.87
2023-04-08T02:28:19.249Z,60.60
2023-04-08T02:30:50.438Z,64.27
2023-04-08T02:33:20.991Z,61.67
2023-04-08T02:35:50.547Z,66.30
2023-04-08T02:38:17.592Z,57.53
2023-04-08T02:40:44.324Z,62.93
2023-04-08T02:43:11.076Z,70.73
2023-04-08T02:45:44.655Z,60.90
2023-04-08T02:48:11.683Z,62.23
2023-04-08T02:50:39.180Z,57.77
2023-04-08T02:53:05.872Z,62.40
2023-04-08T02:55:32.594Z,56.90
2023-04-08T02:57:59.308Z,64.63
2023-04-08T03:00:26.288Z,64.50
2023-04-08T03:02:53.229Z,57.63
2023-04-08T03:05:20.427Z,56.87
2023-04-08T03:07:47.153Z,54.93
2023-04-08T03:10:14.005Z,52.00
2023-04-08T03:12:40.887Z,53.57
2023-04-08T03:15:08.169Z,62.70
2023-04-08T03:17:35.521Z,56.53
2023-04-08T03:20:05.100Z,62.33
2023-04-08T03:22:32.994Z,50.77
2023-04-08T03:25:00.104Z,58.53
2023-04-08T03:27:27.185Z,58.90
2023-04-08T03:29:53.969Z,51.27
2023-04-08T03:32:21.019Z,51.97
2023-04-08T03:34:49.668Z,54.10
2023-04-08T03:37:17.050Z,54.37
2023-04-08T03:39:43.811Z,61.03
2023-04-08T03:42:10.577Z,51.33
2023-04-08T03:44:39.338Z,60.80
2023-04-08T03:47:06.601Z,48.80
2023-04-08T03:49:33.275Z,48.40
2023-04-08T03:51:59.981Z,51.63
2023-04-08T03:54:26.762Z,44.77
2023-04-08T03:56:54.652Z,51.20
2023-04-08T03:59:21.699Z,52.50
2023-04-08T04:01:48.747Z,48.50
2023-04-08T04:04:16.476Z,49.73
2023-04-08T04:06:43.396Z,45.67
2023-04-08T04:09:11.198Z,44.30
2023-04-08T04:11:38.369Z,48.10
2023-04-08T04:14:05.128Z,50.23
2023-04-08T04:16:33.157Z,50.47
2023-04-08T04:19:00.286Z,51.30
2023-04-08T04:21:27.309Z,50.07
2023-04-08T04:23:54.189Z,47.83
2023-04-08T04:26:21.119Z,47.57
2023-04-08T04:28:49.353Z,47.80
2023-04-08T04:31:26.422Z,52.57
2023-04-08T04:33:53.894Z,46.13
2023-04-08T04:36:20.825Z,48.77
2023-04-08T04:38:50.061Z,49.33
2023-04-08T04:41:17.511Z,56.10
2023-04-08T04:43:44.594Z,63.50
2023-04-08T04:46:11.438Z,51.27
2023-04-08T04:48:38.253Z,58.57
2023-04-08T04:51:05.185Z,59.60
2023-04-08T04:53:32.035Z,65.00
2023-04-08T04:56:01.154Z,57.47
2023-04-08T04:58:28.248Z,56.10
2023-04-08T05:00:55.700Z,54.17
2023-04-08T05:03:22.615Z,57.83
2023-04-08T05:05:53.972Z,57.77
2023-04-08T05:08:22.115Z,52.70
2023-04-08T05:10:50.828Z,64.37
2023-04-08T05:13:18.663Z,62.97
2023-04-08T05:15:46.298Z,60.63
2023-04-08T05:18:13.327Z,69.30
2023-04-08T05:20:40.198Z,70.53
2023-04-08T05:23:07.899Z,64.27
2023-04-08T05:25:34.778Z,70.70
2023-04-08T05:28:01.531Z,59.33
2023-04-08T05:30:28.321Z,71.50
2023-04-08T05:32:56.578Z,64.83
2023-04-08T05:35:24.613Z,61.73
2023-04-08T05:37:51.413Z,68.30
2023-04-08T05:40:18.285Z,63.60
2023-04-08T05:42:45.290Z,75.47
2023-04-08T05:45:12.012Z,67.30
2023-04-08T05:47:38.783Z,56.10
2023-04-08T05:50:06.546Z,75.80
2023-04-08T05:52:33.434Z,66.50
2023-04-08T05:55:01.334Z,69.10
2023-04-08T05:57:28.036Z,68.43
2023-04-08T05:59:54.778Z,68.77
2023-04-08T06:02:21.663Z,79.57
2023-04-08T06:04:48.992Z,71.40
2023-04-08T06:07:15.871Z,77.07
2023-04-08T06:09:44.336Z,72.00
2023-04-08T06:12:12.171Z,72.10
2023-04-08T06:14:38.894Z,78.03
2023-04-08T06:17:06.307Z,75.00
2023-04-08T06:19:33.232Z,74.87
2023-04-08T06:22:02.597Z,77.73
2023-04-08T06:24:29.599Z,77.70
2023-04-08T06:26:56.676Z,78.53
2023-04-08T06:29:24.148Z,77.90
2023-04-08T06:31:51.308Z,75.03
2023-04-08T06:34:18.191Z,84.27
2023-04-08T06:36:45.076Z,82.93
2023-04-08T06:39:11.976Z,97.47
2023-04-08T06:41:39.836Z,80.57
2023-04-08T06:44:06.637Z,86.20
2023-04-08T06:46:33.492Z,74.47
2023-04-08T06:49:00.430Z,75.77
2023-04-08T06:51:27.947Z,69.30
2023-04-08T06:53:55.292Z,62.17
2023-04-08T06:56:23.026Z,58.73
2023-04-08T06:58:50.215Z,51.33
2023-04-08T07:01:17.499Z,53.27
2023-04-08T07:03:44.480Z,51.47
2023-04-08T07:06:11.522Z,48.20
2023-04-08T07:08:38.818Z,49.57
2023-04-08T07:11:06.970Z,53.23
2023-04-08T07:13:35.890Z,58.30
2023-04-08T07:16:03.162Z,57.30
2023-04-08T07:18:29.962Z,56.43
2023-04-08T07:20:58.064Z,54.73
2023-04-08T07:23:25.023Z,49.43
2023-04-08T07:25:52.538Z,44.07
2023-04-08T07:28:19.916Z,40.67
2023-04-08T07:30:47.208Z,40.63
2023-04-08T07:33:16.849Z,37.87
2023-04-08T07:35:43.873Z,43.87
2023-04-08T07:38:11.735Z,38.07
2023-04-08T07:40:38.736Z,30.30
2023-04-08T07:43:05.556Z,20.20
2023-04-08T07:45:33.314Z,19.60
2023-04-08T07:48:03.464Z,19.40
2023-04-08T07:50:32.714Z,16.80
2023-04-08T07:52:59.724Z,16.60
2023-04-08T07:55:26.738Z,17.17
2023-04-08T07:57:53.799Z,15.97
2023-04-08T08:00:21.858Z,15.23
2023-04-08T08:02:48.924Z,16.93
2023-04-08T08:05:16.221Z,16.60
2023-04-08T08:07:43.200Z,14.13
2023-04-08T08:10:10.987Z,15.27
2023-04-08T08:12:38.051Z,12.90
2023-04-08T08:15:05.395Z,12.87
2023-04-08T08:17:33.796Z,12.97
2023-04-08T08:20:01.463Z,11.03
2023-04-08T08:22:28.272Z,12.00
2023-04-08T08:24:59.312Z,13.00
2023-04-08T08:27:26.611Z,12.13
2023-04-08T08:29:53.407Z,14.98
2023-04-08T08:32:20.113Z,11.27
2023-04-08T08:34:46.921Z,12.75
2023-04-08T08:37:13.662Z,14.40
2023-04-08T08:39:40.368Z,13.32
2023-04-08T08:42:08.192Z,14.23
2023-04-08T08:44:34.899Z,14.32
2023-04-08T08:47:01.799Z,15.70
2023-04-08T08:49:28.645Z,13.18
2023-04-08T08:51:56.073Z,14.52
2023-04-08T08:54:23.173Z,13.93
2023-04-08T08:56:49.929Z,14.18
2023-04-08T08:59:16.704Z,16.90
2023-04-08T09:01:43.892Z,14.20
2023-04-08T09:04:15.865Z,17.92
2023-04-08T09:06:43.901Z,17.25
2023-04-08T09:09:10.985Z,15.88
2023-04-08T09:11:39.916Z,16.20
2023-04-08T09:14:18.012Z,13.48
2023-04-08T09:16:45.282Z,16.35
2023-04-08T09:19:12.372Z,15.35
2023-04-08T09:21:41.370Z,14.60
2023-04-08T09:24:09.750Z,16.33
2023-04-08T09:26:37.635Z,15.85
2023-04-08T09:29:25.112Z,14.35
2023-04-08T09:31:57.821Z,14.38
2023-04-08T09:34:25.631Z,14.40
2023-04-08T09:36:53.741Z,14.43
2023-04-08T09:39:20.865Z,19.23
2023-04-08T09:41:52.222Z,13.87
2023-04-08T09:44:24.740Z,14.10
2023-04-08T09:46:51.664Z,13.98
2023-04-08T09:49:43.487Z,15.15
2023-04-08T09:52:45.637Z,13.63
2023-04-08T09:55:14.360Z,15.48
2023-04-08T09:57:55.730Z,13.73
2023-04-08T10:00:28.756Z,15.07
2023-04-08T10:02:58.355Z,15.15
2023-04-08T10:05:25.993Z,11.48
2023-04-08T10:07:53.241Z,12.63
2023-04-08T10:10:21.096Z,13.47
2023-04-08T10:12:49.224Z,14.77
2023-04-08T10:15:26.317Z,15.43
2023-04-08T10:18:19.182Z,13.95
2023-04-08T10:20:47.656Z,15.77
2023-04-08T10:23:17.113Z,13.20
2023-04-08T10:25:48.195Z,13.27
2023-04-08T10:28:15.458Z,13.95
2023-04-08T10:30:44.973Z,13.60
2023-04-08T10:33:25.370Z,13.38
2023-04-08T10:36:12.185Z,10.70
2023-04-08T10:38:43.747Z,13.17
2023-04-08T10:41:11.616Z,10.80
2023-04-08T10:43:38.332Z,11.40
2023-04-08T10:46:05.625Z,11.57
2023-04-08T10:48:32.613Z,9.23
2023-04-08T10:51:04.121Z,10.82
2023-04-08T10:53:36.297Z,10.75
2023-04-08T10:56:13.515Z,9.97
2023-04-08T10:58:51.238Z,11.55
2023-04-08T11:01:20.085Z,11.13
2023-04-08T11:03:47.089Z,9.50
2023-04-08T11:06:14.220Z,12.07
2023-04-08T11:08:41.643Z,11.63
2023-04-08T11:11:11.857Z,13.15
2023-04-08T11:13:52.846Z,11.68
2023-04-08T11:16:22.745Z,9.57
2023-04-08T11:18:51.413Z,11.65
2023-04-08T11:21:18.478Z,13.18
2023-04-08T11:23:45.683Z,11.68
2023-04-08T11:26:13.605Z,9.98
2023-04-08T11:28:40.506Z,9.98
2023-04-08T11:31:09.074Z,11.38
2023-04-08T11:33:36.746Z,11.40
2023-04-08T11:36:04.745Z,14.63
2023-04-08T11:38:32.046Z,12.80
2023-04-08T11:40:59.944Z,12.82
2023-04-08T11:43:27.379Z,14.52
2023-04-08T11:45:54.236Z,14.32
2023-04-08T11:48:21.369Z,15.77
2023-04-08T11:50:48.516Z,15.32
2023-04-08T11:53:19.774Z,13.88
2023-04-08T11:55:47.342Z,14.70
2023-04-08T11:58:14.613Z,14.73
2023-04-08T12:00:41.643Z,15.82
2023-04-08T12:03:08.651Z,23.02
2023-04-08T12:05:35.855Z,17.08
2023-04-08T12:08:03.542Z,17.63
2023-04-08T12:10:30.628Z,18.35
2023-04-08T12:12:57.400Z,15.82
2023-04-08T12:15:24.331Z,17.80
2023-04-08T12:17:51.195Z,16.85
2023-04-08T12:20:20.870Z,22.05
2023-04-08T12:22:47.671Z,19.30
2023-04-08T12:25:14.609Z,18.60
2023-04-08T12:27:42.145Z,23.42
2023-04-08T12:30:09.622Z,22.27
2023-04-08T12:32:36.452Z,19.33
2023-04-08T12:35:03.312Z,20.53
2023-04-08T12:37:30.366Z,19.30
2023-04-08T12:39:57.504Z,17.97
2023-04-08T12:42:24.394Z,21.17
2023-04-08T12:44:51.179Z,18.15
2023-04-08T12:47:18.354Z,19.00
2023-04-08T12:52:14.838Z,20.13
2023-04-08T12:54:41.687Z,24.42
2023-04-08T12:57:08.885Z,17.85
2023-04-08T12:59:36.048Z,19.15
2023-04-08T13:02:03.012Z,21.45
2023-04-08T13:04:29.867Z,23.05
2023-04-08T13:06:57.089Z,22.92
2023-04-08T13:09:23.922Z,22.15
2023-04-08T13:11:50.634Z,21.83
2023-04-08T13:14:17.491Z,22.45
2023-04-08T13:16:44.425Z,22.50
2023-04-08T13:19:11.673Z,22.52
2023-04-08T13:21:38.350Z,20.80
2023-04-08T13:24:05.298Z,22.05
2023-04-08T13:26:32.045Z,22.77
2023-04-08T13:28:58.857Z,24.92
2023-04-08T13:31:26.113Z,26.75
2023-04-08T13:33:55.238Z,20.75
2023-04-08T13:36:23.843Z,20.48
2023-04-08T13:38:50.947Z,23.52
2023-04-08T13:41:17.781Z,24.35
2023-04-08T13:43:44.433Z,24.20
2023-04-08T13:46:11.696Z,23.55
2023-04-08T13:48:38.474Z,22.95
2023-04-08T13:51:05.532Z,20.75
2023-04-08T13:53:32.334Z,20.23
2023-04-08T13:55:59.252Z,20.88
2023-04-08T13:58:26.624Z,23.88
2023-04-08T14:00:53.461Z,22.15
2023-04-08T14:03:20.676Z,22.73
2023-04-08T14:05:47.600Z,21.38
2023-04-08T14:08:14.436Z,22.48
2023-04-08T14:10:42.343Z,24.67
2023-04-08T14:13:09.436Z,21.98
2023-04-08T14:15:36.478Z,22.55
2023-04-08T14:18:03.395Z,22.67
2023-04-08T14:20:30.178Z,23.90
2023-04-08T14:22:57.033Z,23.17
2023-04-08T14:25:24.274Z,21.40
2023-04-08T14:27:58.303Z,22.10
2023-04-08T14:30:27.216Z,19.92
2023-04-08T14:32:54.740Z,21.95
2023-04-08T14:35:21.852Z,20.75
2023-04-08T14:37:49.021Z,20.88
2023-04-08T14:40:15.916Z,22.25
2023-04-08T14:42:42.679Z,22.02
2023-04-08T14:45:09.834Z,21.83
2023-04-08T14:47:36.593Z,20.83
2023-04-08T14:50:03.357Z,19.55
2023-04-08T14:52:30.202Z,20.58
2023-04-08T14:54:56.973Z,20.73
2023-04-08T14:57:23.641Z,20.33
2023-04-08T14:59:51.318Z,20.85
2023-04-08T15:02:18.062Z,20.67
2023-04-08T15:04:44.931Z,19.83
2023-04-08T15:07:11.860Z,19.23
2023-04-08T15:09:38.607Z,19.80
2023-04-08T15:12:05.571Z,18.25
2023-04-08T15:14:32.353Z,19.00
2023-04-08T15:16:59.115Z,19.70
2023-04-08T15:19:25.963Z,21.85
2023-04-08T15:21:52.870Z,19.30
2023-04-08T15:24:22.953Z,20.85
2023-04-08T15:26:49.661Z,21.25
2023-04-08T15:29:17.044Z,20.70
2023-04-08T15:31:43.885Z,19.77
2023-04-08T15:34:10.915Z,19.88
2023-04-08T15:36:37.822Z,19.27
2023-04-08T15:39:06.112Z,20.25
2023-04-08T15:41:32.851Z,22.60
2023-04-08T15:43:59.601Z,22.80
2023-04-08T15:46:26.322Z,21.55
2023-04-08T15:48:53.264Z,19.98
2023-04-08T15:51:20.530Z,19.33
2023-04-08T15:53:47.352Z,20.27
2023-04-08T15:56:16.032Z,19.75
2023-04-08T15:58:43.247Z,20.42
2023-04-08T16:01:10.508Z,20.17
2023-04-08T16:03:37.384Z,21.25
2023-04-08T16:06:06.017Z,17.88
2023-04-08T16:08:34.813Z,19.77
2023-04-08T16:11:03.340Z,18.98
2023-04-08T16:13:30.892Z,21.20
2023-04-08T16:15:58.691Z,27.08
2023-04-08T16:18:26.055Z,21.42
2023-04-08T16:20:53.083Z,21.33
2023-04-08T16:23:22.033Z,17.50
2023-04-08T16:25:48.874Z,17.15
2023-04-08T16:28:16.303Z,18.02
2023-04-08T16:30:44.050Z,18.95
2023-04-08T16:33:11.845Z,18.83
2023-04-08T16:35:39.050Z,19.37
2023-04-08T16:38:06.415Z,18.33
2023-04-08T16:40:33.648Z,18.33
2023-04-08T16:43:01.123Z,19.52
2023-04-08T16:45:32.452Z,17.40
2023-04-08T16:48:00.475Z,18.17
2023-04-08T16:50:28.600Z,18.70
2023-04-08T16:52:55.858Z,21.13
2023-04-08T16:55:22.583Z,21.20
2023-04-08T16:57:49.575Z,20.87
2023-04-08T17:00:18.692Z,21.87
2023-04-08T17:02:47.331Z,31.03
2023-04-08T17:05:14.684Z,21.43
2023-04-08T17:07:41.760Z,19.67
2023-04-08T17:10:09.148Z,19.87
2023-04-08T17:12:36.592Z,19.63
2023-04-08T17:15:03.846Z,20.83
2023-04-08T17:17:30.917Z,21.30
2023-04-08T17:19:58.215Z,19.43
2023-04-08T17:22:25.091Z,18.60
2023-04-08T17:24:51.945Z,21.10
2023-04-08T17:27:19.163Z,18.60
2023-04-08T17:29:46.167Z,20.10
2023-04-08T17:32:13.575Z,21.30
2023-04-08T17:34:41.071Z,22.13
2023-04-08T17:37:10.195Z,18.03
2023-04-08T17:39:40.912Z,21.43
2023-04-08T17:42:08.468Z,22.17
2023-04-08T17:44:35.480Z,19.47
2023-04-08T17:47:04.146Z,19.20
2023-04-08T17:49:31.678Z,20.37
2023-04-08T17:51:58.419Z,17.73
2023-04-08T17:54:25.238Z,22.47
2023-04-08T17:56:54.173Z,21.00
2023-04-08T17:59:20.965Z,21.37
2023-04-08T18:01:47.914Z,19.83
2023-04-08T18:04:14.986Z,21.27
2023-04-08T18:06:41.975Z,21.43
2023-04-08T18:09:08.845Z,20.17
2023-04-08T18:11:35.798Z,23.47
2023-04-08T18:14:02.566Z,25.43
2023-04-08T18:16:29.348Z,21.47
2023-04-08T18:18:56.111Z,23.57
2023-04-08T18:21:22.828Z,26.07
2023-04-08T18:23:50.437Z,24.80
2023-04-08T18:26:17.650Z,22.07
2023-04-08T18:28:44.650Z,24.23
2023-04-08T18:31:12.491Z,22.13
2023-04-08T18:33:39.328Z,23.93
2023-04-08T18:36:09.769Z,25.97
2023-04-08T18:38:37.982Z,23.27
2023-04-08T18:41:04.845Z,24.80
2023-04-08T18:43:32.077Z,28.20
2023-04-08T18:45:59.513Z,26.83
2023-04-08T18:48:26.933Z,26.97
2023-04-08T18:50:53.927Z,29.30
2023-04-08T18:53:22.653Z,26.10
2023-04-08T18:55:49.443Z,27.20
2023-04-08T18:58:16.263Z,30.50
2023-04-08T19:00:43.794Z,28.40
2023-04-08T19:03:11.073Z,29.10
2023-04-08T19:05:38.028Z,29.50
2023-04-08T19:08:05.179Z,32.00
2023-04-08T19:10:34.005Z,31.90
2023-04-08T19:13:02.627Z,31.03
2023-04-08T19:15:31.012Z,29.63
2023-04-08T19:17:59.356Z,31.47
2023-04-08T19:20:27.483Z,34.10
2023-04-08T19:22:56.090Z,31.40
2023-04-08T19:25:29.212Z,27.27
2023-04-08T19:28:03.043Z,33.40
2023-04-08T19:30:39.081Z,32.47
2023-04-08T19:33:08.759Z,37.77
2023-04-08T19:35:39.064Z,32.60
2023-04-08T19:38:09.112Z,35.30
2023-04-08T19:40:40.677Z,34.97
2023-04-08T19:43:08.820Z,36.53
2023-04-08T19:45:38.147Z,32.17
2023-04-08T19:48:05.266Z,29.07
2023-04-08T19:50:33.192Z,32.93
2023-04-08T19:53:06.453Z,31.87
2023-04-08T19:55:37.433Z,35.57
2023-04-08T19:58:05.892Z,37.10
2023-04-08T20:00:32.758Z,32.33
2023-04-08T20:03:02.472Z,35.33
2023-04-08T20:05:29.562Z,36.93
2023-04-08T20:07:56.442Z,34.50
2023-04-08T20:10:23.194Z,36.17
2023-04-08T20:12:49.962Z,35.33
2023-04-08T20:15:24.716Z,34.90
2023-04-08T20:17:53.331Z,37.07
2023-04-08T20:20:24.175Z,39.97
2023-04-08T20:22:51.175Z,36.63
2023-04-08T20:25:19.560Z,38.57
2023-04-08T20:27:49.321Z,39.67
2023-04-08T20:30:38.133Z,43.40
2023-04-08T20:33:05.069Z,42.17
2023-04-08T20:35:32.265Z,41.60
2023-04-08T20:37:59.630Z,41.27
2023-04-08T20:40:26.786Z,39.30
2023-04-08T20:42:53.907Z,45.50
2023-04-08T20:45:21.495Z,42.27
2023-04-08T20:47:48.759Z,41.37
2023-04-08T20:50:16.749Z,45.43
2023-04-08T20:52:43.530Z,47.47
2023-04-08T20:55:10.450Z,45.50
2023-04-08T20:57:38.422Z,42.70
2023-04-08T21:00:06.438Z,45.73
2023-04-08T21:02:33.796Z,46.43
2023-04-08T21:05:01.921Z,51.03
2023-04-08T21:07:33.324Z,45.97
2023-04-08T21:10:00.078Z,44.80
2023-04-08T21:12:26.813Z,44.70
2023-04-08T21:14:53.550Z,56.23
2023-04-08T21:17:21.413Z,48.97
2023-04-08T21:19:48.131Z,49.57
2023-04-08T21:22:16.436Z,52.43
2023-04-08T21:24:43.393Z,47.43
2023-04-08T21:27:10.391Z,56.50
2023-04-08T21:29:37.201Z,53.70
2023-04-08T21:32:05.420Z,52.30
2023-04-08T21:34:33.260Z,49.03
2023-04-08T21:37:01.220Z,51.93
2023-04-08T21:39:30.755Z,48.93
2023-04-08T21:41:57.631Z,47.20
2023-04-08T21:44:24.518Z,52.43
2023-04-08T21:46:56.786Z,56.37
2023-04-08T21:49:31.788Z,63.13
2023-04-08T21:51:58.684Z,60.37
2023-04-08T21:54:25.688Z,57.23
2023-04-08T21:56:52.635Z,56.87
2023-04-08T21:59:20.081Z,62.23
2023-04-08T22:01:46.878Z,52.43
2023-04-08T22:04:13.885Z,50.93
2023-04-08T22:06:41.169Z,55.83
2023-04-08T22:09:08.126Z,52.33
2023-04-08T22:11:34.903Z,54.20
2023-04-08T22:14:01.777Z,53.03
2023-04-08T22:16:28.637Z,56.27
2023-04-08T22:18:55.462Z,59.10
2023-04-08T22:21:22.695Z,56.47
2023-04-08T22:23:50.591Z,54.37
2023-04-08T22:26:17.345Z,53.03
2023-04-08T22:28:44.892Z,55.77
2023-04-08T22:31:12.793Z,56.93
2023-04-08T22:33:40.120Z,55.03
2023-04-08T22:36:07.159Z,57.30
2023-04-08T22:38:34.085Z,59.27
2023-04-08T22:41:01.013Z,55.07
2023-04-08T22:43:27.812Z,60.33
2023-04-08T22:45:54.704Z,62.40
2023-04-08T22:48:21.577Z,55.83
2023-04-08T22:50:48.411Z,57.23
2023-04-08T22:53:15.794Z,58.13
2023-04-08T22:55:42.679Z,52.50
2023-04-08T22:58:09.486Z,59.10
2023-04-08T23:00:37.158Z,52.70
2023-04-08T23:03:04.954Z,57.73
2023-04-08T23:05:32.343Z,60.43
2023-04-08T23:08:00.311Z,57.30
2023-04-08T23:10:28.230Z,61.03
2023-04-08T23:12:54.976Z,61.33
2023-04-08T23:15:21.728Z,61.27
2023-04-08T23:17:48.631Z,61.53
2023-04-08T23:20:15.619Z,59.90
2023-04-08T23:22:42.492Z,59.23
2023-04-08T23:25:09.975Z,59.93
2023-04-08T23:27:36.834Z,61.87
2023-04-08T23:30:05.759Z,64.07
2023-04-08T23:32:36.036Z,62.53
2023-04-08T23:35:03.124Z,62.63
2023-04-08T23:37:30.425Z,65.03
2023-04-08T23:39:57.410Z,66.33
2023-04-08T23:42:27.256Z,62.73
2023-04-08T23:44:55.272Z,63.73
2023-04-08T23:47:22.363Z,62.10
2023-04-08T23:49:49.284Z,65.00
2023-04-08T23:52:16.479Z,63.23
2023-04-08T23:54:43.310Z,63.03
2023-04-08T23:57:10.051Z,60.10
2023-04-08T23:59:36.896Z,67.17
